Time;durP1;ratioP1;P1;durP2;ratioP2;P2;SDS_P1;SDS_P2;PMS_P1;PMS_P2;Temp;Humidity;BMP_temperature;BMP_pressure;BME280_temperature;BME280_humidity;BME280_pressure;Samples;Min_cycle;Max_cycle;Signal;HPM_P1;HPM_P2
2022/08/19 00:00:32;;;;;;;1999.90;999.90;;;20.50;99.90;;;;;;5093753;28;20397;-73
2022/08/19 00:02:58;;;;;;;1999.90;999.90;;;20.40;99.90;;;;;;5093649;28;20827;-73
2022/08/19 00:05:24;;;;;;;1999.90;999.90;;;20.40;99.90;;;;;;5094000;28;20163;-73
2022/08/19 00:07:50;;;;;;;1999.90;999.90;;;20.40;99.90;;;;;;5093304;28;20194;-73
2022/08/19 00:10:18;;;;;;;1999.90;999.90;;;20.40;99.90;;;;;;5093623;28;20174;-73
2022/08/19 00:12:44;;;;;;;1999.90;999.90;;;20.30;99.90;;;;;;5093486;28;20405;-73
2022/08/19 00:15:13;;;;;;;1999.90;999.90;;;20.20;99.90;;;;;;5093495;28;20485;-73
2022/08/19 00:17:41;;;;;;;1999.90;999.90;;;20.20;99.90;;;;;;5093109;28;20252;-73
2022/08/19 00:20:10;;;;;;;1999.90;999.90;;;20.20;99.90;;;;;;5093321;28;20460;-73
2022/08/19 00:22:37;;;;;;;1999.90;999.90;;;20.20;99.90;;;;;;5093399;28;20446;-73
2022/08/19 00:25:04;;;;;;;1999.90;999.90;;;20.20;99.90;;;;;;5093326;28;20397;-73
2022/08/19 00:27:29;;;;;;;1999.90;999.90;;;20.20;99.90;;;;;;5092832;28;20441;-73
2022/08/19 00:29:55;;;;;;;1999.90;999.90;;;20.20;99.90;;;;;;5093104;28;20406;-73
2022/08/19 00:32:21;;;;;;;1999.90;999.90;;;20.20;99.90;;;;;;5093234;28;20167;-73
2022/08/19 00:34:46;;;;;;;1999.90;999.90;;;20.20;99.90;;;;;;5093128;28;20173;-73
2022/08/19 00:37:12;;;;;;;1999.90;999.90;;;20.10;99.90;;;;;;5092741;28;20509;-73
2022/08/19 00:39:38;;;;;;;1999.90;999.90;;;20.10;99.90;;;;;;5093107;28;20178;-73
2022/08/19 00:42:06;;;;;;;1999.90;999.90;;;20.10;99.90;;;;;;5092977;28;20182;-73
2022/08/19 00:44:32;;;;;;;1999.90;999.90;;;20.10;99.90;;;;;;5092865;28;20191;-73
2022/08/19 00:46:58;;;;;;;1999.90;999.90;;;20.00;99.90;;;;;;5092786;28;20429;-73
2022/08/19 00:49:45;;;;;;;1999.90;999.90;;;19.90;99.90;;;;;;5092816;28;20446;-73
2022/08/19 00:52:19;;;;;;;1999.90;999.90;;;19.90;99.90;;;;;;5092876;28;20400;-73
2022/08/19 00:54:47;;;;;;;1999.90;999.90;;;19.90;99.90;;;;;;5092972;28;20371;-73
2022/08/19 00:57:16;;;;;;;1999.90;999.90;;;19.90;99.90;;;;;;5092316;28;20427;-73
2022/08/19 00:59:45;;;;;;;1999.90;999.90;;;19.90;99.90;;;;;;5092620;28;20914;-73
2022/08/19 01:02:12;;;;;;;1999.90;999.90;;;20.00;99.90;;;;;;5092616;28;20446;-73
2022/08/19 01:04:38;;;;;;;1999.90;999.90;;;20.00;99.90;;;;;;5091668;28;20408;-73
2022/08/19 01:07:04;;;;;;;1999.90;999.90;;;20.10;99.90;;;;;;5092258;28;20426;-73
2022/08/19 01:09:30;;;;;;;1999.90;999.90;;;20.20;99.90;;;;;;5092479;28;20750;-73
2022/08/19 01:11:57;;;;;;;1999.90;999.90;;;20.10;99.90;;;;;;5092532;28;20498;-73
2022/08/19 01:14:23;;;;;;;1999.90;999.90;;;20.10;99.90;;;;;;5092441;28;20440;-73
2022/08/19 01:16:54;;;;;;;1999.90;999.90;;;20.00;99.90;;;;;;5092045;28;20883;-73
2022/08/19 01:19:29;;;;;;;1999.90;999.90;;;19.90;99.90;;;;;;5092416;28;20410;-73
2022/08/19 01:22:27;;;;;;;1999.90;999.90;;;19.90;99.90;;;;;;5092251;28;20445;-73
2022/08/19 01:24:52;;;;;;;1999.90;999.90;;;20.00;99.90;;;;;;5076420;28;20512;-73
2022/08/19 01:27:18;;;;;;;1999.90;999.90;;;20.00;99.90;;;;;;5091861;28;20493;-73
2022/08/19 01:29:45;;;;;;;1999.90;999.90;;;20.00;99.90;;;;;;5092185;28;20176;-73
2022/08/19 01:32:16;;;;;;;1999.90;999.90;;;19.90;99.90;;;;;;5092224;28;20167;-73
2022/08/19 01:34:46;;;;;;;1999.90;999.90;;;19.90;99.90;;;;;;5092095;28;20411;-73
2022/08/19 01:37:13;;;;;;;1999.90;999.90;;;19.90;99.90;;;;;;5091997;28;20879;-73
2022/08/19 01:39:40;;;;;;;1999.90;999.90;;;19.80;99.90;;;;;;5092167;28;20414;-73
2022/08/19 01:42:09;;;;;;;1999.90;999.90;;;19.90;99.90;;;;;;5092003;28;20558;-73
2022/08/19 01:44:36;;;;;;;1999.90;999.90;;;19.90;99.90;;;;;;5092009;28;20434;-73
2022/08/19 01:47:03;;;;;;;1999.90;999.90;;;19.90;99.90;;;;;;5091610;28;20412;-73
2022/08/19 01:49:29;;;;;;;1999.90;999.90;;;19.90;99.90;;;;;;5092057;28;20376;-73
2022/08/19 01:51:55;;;;;;;1999.90;999.90;;;19.90;99.90;;;;;;5091987;28;20410;-73
2022/08/19 01:54:23;;;;;;;1999.90;999.90;;;19.80;99.90;;;;;;5092038;28;20172;-73
2022/08/19 01:56:50;;;;;;;1999.90;999.90;;;19.70;99.90;;;;;;5091546;28;20425;-73
2022/08/19 01:59:20;;;;;;;1999.90;999.90;;;19.70;99.90;;;;;;5091926;28;20407;-73
2022/08/19 02:01:45;;;;;;;1999.90;999.90;;;19.70;99.90;;;;;;5091706;28;20455;-73
2022/08/19 02:04:11;;;;;;;1999.90;999.90;;;19.50;99.90;;;;;;5091915;28;20403;-73
2022/08/19 02:06:39;;;;;;;1999.90;999.90;;;19.50;99.90;;;;;;5091602;28;20182;-73
2022/08/19 02:09:06;;;;;;;1999.90;999.90;;;19.40;99.90;;;;;;5091895;28;20171;-73
2022/08/19 02:11:34;;;;;;;1999.90;999.90;;;19.40;99.90;;;;;;5091926;28;20433;-73
2022/08/19 02:14:02;;;;;;;1999.90;999.90;;;19.50;99.90;;;;;;5091682;28;20859;-73
2022/08/19 02:16:27;;;;;;;1999.90;999.90;;;19.50;99.90;;;;;;5094197;28;20457;-73
2022/08/19 02:18:54;;;;;;;1999.90;999.90;;;19.50;99.90;;;;;;5095774;28;20410;-73
2022/08/19 02:21:22;;;;;;;1999.90;999.90;;;19.40;99.90;;;;;;5095828;28;20201;-73
2022/08/19 02:23:49;;;;;;;1999.90;999.90;;;19.40;99.90;;;;;;5095666;28;20395;-73
2022/08/19 02:26:15;;;;;;;1999.90;999.90;;;19.30;99.90;;;;;;5095124;28;20439;-73
2022/08/19 02:28:42;;;;;;;1999.90;999.90;;;19.30;99.90;;;;;;5095511;28;20403;-73
2022/08/19 02:31:17;;;;;;;1999.90;999.90;;;19.30;99.90;;;;;;5095735;28;20407;-73
2022/08/19 02:33:43;;;;;;;1999.90;999.90;;;19.30;99.90;;;;;;5095667;28;20411;-73
2022/08/19 02:36:11;;;;;;;1999.90;999.90;;;19.30;99.90;;;;;;5095123;28;20430;-73
2022/08/19 02:38:37;;;;;;;1999.90;999.90;;;19.30;99.90;;;;;;5095418;28;20403;-73
2022/08/19 02:41:09;;;;;;;1999.90;999.90;;;19.30;99.90;;;;;;5095290;28;20415;-73
2022/08/19 02:43:36;;;;;;;1999.90;999.90;;;19.30;99.90;;;;;;5095258;28;20401;-72
2022/08/19 02:46:13;;;;;;;1999.90;999.90;;;19.30;99.90;;;;;;5094916;28;20408;-73
2022/08/19 02:48:39;;;;;;;1999.90;999.90;;;19.30;99.90;;;;;;5095276;28;20494;-73
2022/08/19 02:51:05;;;;;;;1999.90;999.90;;;19.30;99.90;;;;;;5095161;28;21031;-73
2022/08/19 02:53:31;;;;;;;1999.90;999.90;;;19.30;99.90;;;;;;5095140;28;20585;-73
2022/08/19 02:55:57;;;;;;;1999.90;999.90;;;19.30;99.90;;;;;;5094774;28;20178;-73
2022/08/19 02:58:23;;;;;;;1999.90;999.90;;;19.20;99.90;;;;;;5095026;28;20399;-73
2022/08/19 03:00:52;;;;;;;1999.90;999.90;;;19.10;99.90;;;;;;5094921;28;20499;-73
2022/08/19 03:03:19;;;;;;;1999.90;999.90;;;19.10;99.90;;;;;;5094850;28;20466;-73
2022/08/19 03:05:45;;;;;;;1999.90;999.90;;;19.00;99.90;;;;;;5094812;28;20492;-73
2022/08/19 03:08:12;;;;;;;1999.90;999.90;;;18.90;99.90;;;;;;5094440;28;20521;-73
2022/08/19 03:10:55;;;;;;;1999.90;999.90;;;18.90;99.90;;;;;;5094876;28;20454;-73
2022/08/19 03:13:23;;;;;;;1999.90;999.90;;;18.90;99.90;;;;;;5094851;28;20885;-73
2022/08/19 03:15:49;;;;;;;1999.90;999.90;;;18.80;99.90;;;;;;5094524;28;20400;-73
2022/08/19 03:18:16;;;;;;;1999.90;999.90;;;18.80;99.90;;;;;;5094629;28;20768;-72
2022/08/19 03:20:47;;;;;;;1999.90;999.90;;;18.80;99.90;;;;;;5094618;28;20432;-73
2022/08/19 03:23:13;;;;;;;1999.90;999.90;;;18.70;99.90;;;;;;5094389;28;20468;-73
2022/08/19 03:25:42;;;;;;;1999.90;999.90;;;18.70;99.90;;;;;;5094627;28;20401;-73
2022/08/19 03:28:12;;;;;;;1999.90;999.90;;;18.60;99.90;;;;;;5092993;28;20595;-73
2022/08/19 03:30:42;;;;;;;1999.90;999.90;;;18.50;99.90;;;;;;5094435;28;20400;-73
2022/08/19 03:33:10;;;;;;;1999.90;999.90;;;18.50;99.90;;;;;;5094415;28;20415;-73
2022/08/19 03:35:38;;;;;;;1999.90;999.90;;;18.40;99.90;;;;;;5094329;28;20802;-73
2022/08/19 03:38:06;;;;;;;1999.90;999.90;;;18.30;99.90;;;;;;5093979;28;20526;-73
2022/08/19 03:40:34;;;;;;;1999.90;999.90;;;18.40;99.90;;;;;;5094181;28;20439;-73
2022/08/19 03:43:00;;;;;;;1999.90;999.90;;;18.40;99.90;;;;;;5094115;28;20455;-73
2022/08/19 03:45:27;;;;;;;1999.90;999.90;;;18.40;99.90;;;;;;5094169;28;20405;-73
2022/08/19 03:47:53;;;;;;;1999.90;999.90;;;18.40;99.90;;;;;;5093622;28;20428;-73
2022/08/19 03:50:19;;;;;;;1999.90;999.90;;;18.50;99.90;;;;;;5094090;28;20858;-73
2022/08/19 03:52:51;;;;;;;1999.90;999.90;;;18.50;99.90;;;;;;5093969;28;20493;-73
2022/08/19 03:55:17;;;;;;;1999.90;999.90;;;18.60;99.90;;;;;;5093933;28;20428;-73
2022/08/19 03:57:44;;;;;;;1999.90;999.90;;;18.60;99.90;;;;;;5093513;28;20430;-73
2022/08/19 04:00:11;;;;;;;1999.90;999.90;;;18.70;99.90;;;;;;5093829;28;20412;-73
2022/08/19 04:02:36;;;;;;;1999.90;999.90;;;18.70;99.90;;;;;;5093736;28;20451;-73
2022/08/19 04:05:02;;;;;;;1999.90;999.90;;;18.80;99.90;;;;;;5093732;28;20414;-73
2022/08/19 04:07:28;;;;;;;1999.90;999.90;;;18.80;99.90;;;;;;5093361;28;20672;-73
2022/08/19 04:09:54;;;;;;;1999.90;999.90;;;18.80;99.90;;;;;;5093603;28;20448;-73
2022/08/19 04:12:20;;;;;;;1999.90;999.90;;;18.80;99.90;;;;;;5093648;28;20237;-73
2022/08/19 04:14:45;;;;;;;1999.90;999.90;;;18.90;99.90;;;;;;5093590;28;20635;-73
2022/08/19 04:17:12;;;;;;;1999.90;999.90;;;18.80;99.90;;;;;;5093053;28;20518;-72
2022/08/19 04:19:38;;;;;;;1999.90;999.90;;;18.80;99.90;;;;;;5093465;28;20180;-73
2022/08/19 04:22:04;;;;;;;1999.90;999.90;;;18.90;99.90;;;;;;5093307;28;20462;-73
2022/08/19 04:24:30;;;;;;;1999.90;999.90;;;18.90;99.90;;;;;;5093338;28;20223;-73
2022/08/19 04:26:56;;;;;;;1999.90;999.90;;;18.90;99.90;;;;;;5094512;22;20481;-67
2022/08/19 04:29:24;;;;;;;1999.90;999.90;;;18.70;99.90;;;;;;5033216;28;20536;-66
2022/08/19 04:31:53;;;;;;;1999.90;999.90;;;18.60;99.90;;;;;;5039228;28;20171;-67
2022/08/19 04:34:23;;;;;;;1999.90;999.90;;;18.50;99.90;;;;;;5041952;28;20408;-67
2022/08/19 04:36:50;;;;;;;1999.90;999.90;;;18.40;99.90;;;;;;5033346;28;20948;-67
2022/08/19 04:39:20;;;;;;;1999.90;999.90;;;18.40;99.90;;;;;;5032732;28;20806;-67
2022/08/19 04:44:34;;;;;;;1999.90;999.90;;;18.20;99.90;;;;;;5041758;28;20491;-67
2022/08/19 04:47:01;;;;;;;1999.90;999.90;;;18.10;99.90;;;;;;5038218;28;20416;-66
2022/08/19 04:49:27;;;;;;;1999.90;999.90;;;18.10;99.90;;;;;;5032767;28;20404;-66
2022/08/19 04:51:54;;;;;;;1999.90;999.90;;;18.10;99.90;;;;;;5032770;28;20399;-66
2022/08/19 04:54:22;;;;;;;1999.90;999.90;;;18.10;99.90;;;;;;5032614;28;20408;-66
2022/08/19 04:56:49;;;;;;;1999.90;999.90;;;18.10;99.90;;;;;;5037031;28;20432;-67
2022/08/19 04:59:16;;;;;;;1999.90;999.90;;;18.20;99.90;;;;;;5041604;28;20465;-66
2022/08/19 05:01:43;;;;;;;1999.90;999.90;;;18.30;99.90;;;;;;5037791;28;20455;-67
2022/08/19 05:04:09;;;;;;;1999.90;999.90;;;18.30;99.90;;;;;;5032491;28;20437;-67
2022/08/19 05:06:35;;;;;;;1999.90;999.90;;;18.30;99.90;;;;;;5032171;28;20432;-67
2022/08/19 05:09:05;;;;;;;1999.90;999.90;;;18.30;99.90;;;;;;5032330;28;20774;-66
2022/08/19 05:11:38;;;;;;;1999.90;999.90;;;18.30;99.90;;;;;;5032600;28;20461;-67
2022/08/19 05:14:05;;;;;;;1999.90;999.90;;;18.40;99.90;;;;;;5032536;28;20938;-66
2022/08/19 05:16:31;;;;;;;1999.90;999.90;;;18.40;99.90;;;;;;5031945;28;20435;-65
2022/08/19 05:24:29;;;;;;;1999.90;999.90;;;18.20;99.90;;;;;;5032480;28;20410;-66
2022/08/19 05:26:58;;;;;;;1999.90;999.90;;;18.20;99.90;;;;;;5031724;28;20431;-66
2022/08/19 05:29:26;;;;;;;1999.90;999.90;;;18.20;99.90;;;;;;5032083;28;20421;-66
2022/08/19 05:31:53;;;;;;;1999.90;999.90;;;18.20;99.90;;;;;;5032157;28;20929;-65
2022/08/19 05:34:21;;;;;;;1999.90;999.90;;;18.20;99.90;;;;;;5032077;28;20828;-67
2022/08/19 05:36:49;;;;;;;1999.90;999.90;;;18.20;99.90;;;;;;5031707;28;20574;-67
2022/08/19 05:39:18;;;;;;;1999.90;999.90;;;18.20;99.90;;;;;;5031981;28;20456;-67
2022/08/19 05:41:46;;;;;;;1999.90;999.90;;;18.20;99.90;;;;;;5031963;28;20445;-67
2022/08/19 05:44:12;;;;;;;1999.90;999.90;;;18.20;99.90;;;;;;5031950;28;20456;-67
2022/08/19 05:46:38;;;;;;;1999.90;999.90;;;18.20;99.90;;;;;;5031593;28;20421;-66
2022/08/19 05:49:06;;;;;;;1999.90;999.90;;;18.30;99.90;;;;;;5031958;28;20418;-66
2022/08/19 05:51:34;;;;;;;1999.90;999.90;;;18.40;99.90;;;;;;5037836;28;20492;-67
2022/08/19 05:54:01;;;;;;;1999.90;999.90;;;18.40;99.90;;;;;;5041261;28;20412;-66
2022/08/19 05:56:26;;;;;;;1999.90;999.90;;;18.50;99.90;;;;;;5038440;28;20416;-66
2022/08/19 05:58:53;;;;;;;1999.90;999.90;;;18.50;99.90;;;;;;5038492;28;20425;-67
2022/08/19 06:01:20;;;;;;;1999.90;999.90;;;18.60;99.90;;;;;;5038318;28;20175;-67
2022/08/19 06:03:47;;;;;;;1999.90;999.90;;;18.60;99.90;;;;;;5038404;28;20438;-67
2022/08/19 06:06:14;;;;;;;1999.90;999.90;;;18.60;99.90;;;;;;5038218;28;20436;-67
2022/08/19 06:08:42;;;;;;;1999.90;999.90;;;18.70;99.90;;;;;;5038254;28;20443;-66
2022/08/19 06:11:23;;;;;;;1999.90;999.90;;;18.70;99.90;;;;;;5038427;28;20446;-67
2022/08/19 06:13:53;;;;;;;1999.90;999.90;;;18.70;99.90;;;;;;5038271;28;20491;-66
2022/08/19 06:16:23;;;;;;;1999.90;999.90;;;18.70;99.90;;;;;;5038013;28;20845;-67
2022/08/19 06:18:51;;;;;;;1999.90;999.90;;;18.70;99.90;;;;;;5038261;28;20431;-67
2022/08/19 06:21:18;;;;;;;1999.90;999.90;;;18.60;99.90;;;;;;5038098;28;20409;-66
2022/08/19 06:23:44;;;;;;;1999.90;999.90;;;18.60;99.90;;;;;;5038276;28;20387;-66
2022/08/19 06:26:15;;;;;;;1999.90;999.90;;;18.60;99.90;;;;;;5037937;28;20435;-66
2022/08/19 06:28:46;;;;;;;1999.90;999.90;;;18.60;99.90;;;;;;5038036;28;20483;-66
2022/08/19 06:31:17;;;;;;;1999.90;999.90;;;18.70;99.90;;;;;;5038295;28;20402;-65
2022/08/19 06:33:44;;;;;;;1999.90;999.90;;;18.70;99.90;;;;;;5038268;28;20827;-66
2022/08/19 06:36:27;;;;;;;1999.90;999.90;;;18.80;99.90;;;;;;5037813;28;20407;-66
2022/08/19 06:38:53;;;;;;;1999.90;999.90;;;18.80;99.90;;;;;;5037984;28;20445;-66
2022/08/19 06:41:19;;;;;;;1999.90;999.90;;;18.80;99.90;;;;;;5042998;28;20476;-66
2022/08/19 06:43:45;;;;;;;1999.90;999.90;;;18.90;99.90;;;;;;5049205;28;20416;-66
2022/08/19 06:46:15;;;;;;;1999.90;999.90;;;18.90;99.90;;;;;;5048915;28;20197;-67
2022/08/19 06:48:41;;;;;;;1999.90;999.90;;;18.90;99.90;;;;;;5030955;28;20194;-67
2022/08/19 06:51:06;;;;;;;1999.90;999.90;;;19.00;99.90;;;;;;5048359;28;20419;-67
2022/08/19 06:53:33;;;;;;;1999.90;999.90;;;19.10;99.90;;;;;;5048564;28;20404;-67
2022/08/19 06:56:02;;;;;;;1999.90;999.90;;;19.30;99.90;;;;;;5047894;28;20182;-67
2022/08/19 06:58:34;;;;;;;1999.90;999.90;;;19.40;99.90;;;;;;5048137;28;20432;-66
2022/08/19 07:01:04;;;;;;;1999.90;999.90;;;19.50;99.90;;;;;;5026244;28;20425;-66
2022/08/19 07:03:32;;;;;;;1999.90;999.90;;;19.60;99.90;;;;;;5034773;28;20411;-66
2022/08/19 07:06:03;;;;;;;1999.90;999.90;;;19.70;99.90;;;;;;5041063;28;20404;-66
2022/08/19 07:08:28;;;;;;;1999.90;999.90;;;19.80;99.90;;;;;;5034620;28;20437;-66
2022/08/19 07:10:54;;;;;;;1999.90;999.90;;;19.80;99.90;;;;;;5034672;28;20395;-65
2022/08/19 07:13:21;;;;;;;1999.90;999.90;;;19.80;99.90;;;;;;5034669;28;20175;-67
2022/08/19 07:15:47;;;;;;;1999.90;999.90;;;19.80;99.90;;;;;;5040635;28;20165;-67
2022/08/19 07:18:13;;;;;;;1999.90;999.90;;;19.80;99.90;;;;;;5043529;28;20424;-67
2022/08/19 07:20:39;;;;;;;1999.90;999.90;;;19.70;99.90;;;;;;5035303;28;20497;-67
2022/08/19 07:23:05;;;;;;;1999.90;999.90;;;19.70;99.90;;;;;;5038223;28;20203;-66
2022/08/19 07:25:30;;;;;;;1999.90;999.90;;;19.70;99.90;;;;;;5034351;28;20412;-66
2022/08/19 07:27:56;;;;;;;1999.90;999.90;;;19.70;99.90;;;;;;5033693;28;20232;-66
2022/08/19 07:30:23;;;;;;;1999.90;999.90;;;19.70;99.90;;;;;;5034264;28;20654;-66
2022/08/19 07:32:50;;;;;;;1999.90;999.90;;;19.70;99.90;;;;;;5034214;28;20164;-66
2022/08/19 07:35:19;;;;;;;1999.90;999.90;;;19.80;99.90;;;;;;5034336;28;20414;-66
2022/08/19 07:37:44;;;;;;;1999.90;999.90;;;19.90;99.90;;;;;;5033875;28;20784;-65
2022/08/19 07:40:11;;;;;;;1999.90;999.90;;;20.10;99.90;;;;;;5041027;28;20537;-66
2022/08/19 07:42:36;;;;;;;1999.90;999.90;;;20.10;99.90;;;;;;5043963;28;20189;-66
2022/08/19 07:45:03;;;;;;;1999.90;999.90;;;20.20;99.90;;;;;;5043279;28;20978;-65
2022/08/19 07:47:29;;;;;;;1999.90;999.90;;;20.30;99.90;;;;;;5038603;28;20189;-65
2022/08/19 07:49:56;;;;;;;1999.90;999.90;;;20.40;99.90;;;;;;5031061;28;20441;-67
2022/08/19 07:52:22;;;;;;;1999.90;999.90;;;20.50;99.90;;;;;;5033033;28;20499;-67
2022/08/19 07:54:49;;;;;;;1999.90;999.90;;;20.60;99.90;;;;;;5033091;28;20418;-66
2022/08/19 07:57:15;;;;;;;1999.90;999.90;;;20.60;99.90;;;;;;5032606;28;20429;-67
2022/08/19 07:59:41;;;;;;;1999.90;999.90;;;20.70;99.90;;;;;;5032825;28;20407;-67
2022/08/19 08:02:08;;;;;;;1999.90;999.90;;;20.70;99.90;;;;;;5032581;28;20449;-67
2022/08/19 08:10:06;;;;;;;1999.90;999.90;;;20.70;99.90;;;;;;5033945;28;20408;-66
2022/08/19 08:12:41;;;;;;;1999.90;999.90;;;20.70;99.90;;;;;;5033150;28;20432;-65
2022/08/19 08:15:10;;;;;;;1999.90;999.90;;;20.80;99.90;;;;;;5033517;28;20414;-67
2022/08/19 08:17:36;;;;;;;1999.90;999.90;;;20.80;99.90;;;;;;5033135;28;20424;-66
2022/08/19 08:20:06;;;;;;;1999.90;999.90;;;20.90;99.90;;;;;;5033486;28;20432;-67
2022/08/19 08:25:20;;;;;;;1999.90;999.90;;;21.10;99.90;;;;;;5033591;28;20411;-66
2022/08/19 08:27:46;;;;;;;1999.90;999.90;;;21.30;99.90;;;;;;5032803;28;20438;-66
2022/08/19 08:30:16;;;;;;;1999.90;999.90;;;21.50;99.90;;;;;;5033177;28;20487;-66
2022/08/19 08:32:42;;;;;;;1999.90;999.90;;;21.60;99.90;;;;;;5033161;28;20887;-65
2022/08/19 08:35:14;;;;;;;1999.90;999.90;;;21.70;99.90;;;;;;5032892;28;20436;-66
2022/08/19 08:37:41;;;;;;;1999.90;999.90;;;21.80;99.90;;;;;;5032641;28;20648;-65
2022/08/19 08:40:18;;;;;;;1999.90;999.90;;;21.90;99.90;;;;;;5032550;28;20380;-66
2022/08/19 08:43:07;;;;;;;1999.90;999.90;;;22.00;99.90;;;;;;5032823;28;20981;-66
2022/08/19 08:45:36;;;;;;;1999.90;999.90;;;22.20;99.90;;;;;;5032774;28;20392;-66
2022/08/19 08:48:10;;;;;;;1999.90;999.90;;;22.40;99.90;;;;;;5032412;28;20407;-66
2022/08/19 08:50:42;;;;;;;1999.90;999.90;;;22.50;99.90;;;;;;5032844;28;20376;-65
2022/08/19 08:53:08;;;;;;;1999.90;999.90;;;22.70;99.90;;;;;;5032712;28;20402;-66
2022/08/19 08:55:34;;;;;;;1999.90;999.90;;;22.80;99.90;;;;;;5032637;28;20940;-66
2022/08/19 08:58:05;;;;;;;1999.90;999.90;;;22.90;99.90;;;;;;5032321;28;20438;-65
2022/08/19 09:00:38;;;;;;;1999.90;999.90;;;23.20;99.90;;;;;;5032572;28;20407;-66
2022/08/19 09:03:15;;;;;;;1999.90;999.90;;;23.30;99.90;;;;;;5032467;28;20443;-65
2022/08/19 09:06:21;;;;;;;1999.90;999.90;;;23.40;99.90;;;;;;5032534;28;20382;-67
2022/08/19 09:09:32;;;;;;;1999.90;999.90;;;23.50;99.90;;;;;;5010051;28;20411;-66
2022/08/19 09:12:12;;;;;;;1999.90;999.90;;;23.80;99.90;;;;;;5039596;28;20403;-66
2022/08/19 09:14:50;;;;;;;1999.90;999.90;;;23.90;99.90;;;;;;5039342;28;20403;-66
2022/08/19 09:17:16;;;;;;;1999.90;999.90;;;23.90;99.90;;;;;;5038996;28;20939;-66
2022/08/19 09:19:53;;;;;;;1999.90;999.90;;;24.00;99.90;;;;;;5039325;28;20381;-66
2022/08/19 09:22:22;;;;;;;1999.90;999.90;;;24.00;99.90;;;;;;5039681;28;20803;-65
2022/08/19 09:24:54;;;;;;;1999.90;999.90;;;24.00;99.90;;;;;;5037610;28;20434;-66
2022/08/19 09:27:23;;;;;;;1999.90;999.90;;;23.80;99.90;;;;;;5037499;28;20442;-66
2022/08/19 09:29:49;;;;;;;1999.90;999.90;;;23.70;99.90;;;;;;5038519;28;20412;-65
2022/08/19 09:32:15;;;;;;;1999.90;999.90;;;23.80;99.90;;;;;;5037568;28;20894;-65
2022/08/19 09:34:41;;;;;;;1999.90;999.90;;;23.90;99.90;;;;;;5037957;28;20389;-65
2022/08/19 09:37:07;;;;;;;1999.90;999.90;;;23.90;99.90;;;;;;5037984;28;20437;-66
2022/08/19 09:39:33;;;;;;;1999.90;999.90;;;24.00;99.90;;;;;;5034754;28;20168;-66
2022/08/19 09:41:59;;;;;;;1999.90;999.90;;;24.00;99.90;;;;;;5031918;28;20500;-66
2022/08/19 09:44:24;;;;;;;1999.90;999.90;;;24.00;99.90;;;;;;5031980;28;20594;-66
2022/08/19 09:46:51;;;;;;;1999.90;999.90;;;24.00;99.90;;;;;;5031575;28;20428;-66
2022/08/19 09:49:21;;;;;;;1999.90;999.90;;;24.00;99.90;;;;;;5031845;28;20407;-66
2022/08/19 09:51:50;;;;;;;1999.90;999.90;;;24.00;99.90;;;;;;5031955;28;20516;-67
2022/08/19 09:54:16;;;;;;;1999.90;999.90;;;24.00;99.90;;;;;;5014049;28;20415;-66
2022/08/19 09:56:42;;;;;;;1999.90;999.90;;;24.30;99.90;;;;;;5031529;28;20398;-66
2022/08/19 09:59:10;;;;;;;1999.90;999.90;;;24.50;99.90;;;;;;5031488;28;20707;-66
2022/08/19 10:01:35;;;;;;;1999.90;999.90;;;24.60;99.90;;;;;;4998433;28;20486;-66
2022/08/19 10:04:04;;;;;;;1999.90;999.90;;;25.00;99.90;;;;;;5032044;28;20442;-67
2022/08/19 10:06:34;;;;;;;1999.90;999.90;;;25.30;99.90;;;;;;5014077;28;20214;-66
2022/08/19 10:09:02;;;;;;;1999.90;999.90;;;25.40;99.90;;;;;;4998610;28;20855;-66
2022/08/19 10:11:28;;;;;;;1999.90;999.90;;;25.60;99.90;;;;;;4997971;28;20617;-66
2022/08/19 10:13:55;;;;;;;1999.90;999.90;;;25.60;99.90;;;;;;5014045;28;20473;-66
2022/08/19 10:16:23;;;;;;;1999.90;999.90;;;25.70;99.90;;;;;;5031392;28;20439;-66
2022/08/19 10:18:53;;;;;;;1999.90;999.90;;;25.30;99.90;;;;;;5031809;28;20410;-66
2022/08/19 10:21:23;;;;;;;1999.90;999.90;;;25.20;99.90;;;;;;4997842;28;21026;-65
2022/08/19 10:23:52;;;;;;;1999.90;999.90;;;25.00;99.90;;;;;;4997607;28;20413;-65
2022/08/19 10:26:30;;;;;;;1999.90;999.90;;;24.90;99.90;;;;;;4997635;28;20382;-66
2022/08/19 10:28:58;;;;;;;1999.90;999.90;;;25.00;99.90;;;;;;4997901;28;20940;-65
2022/08/19 10:31:29;;;;;;;1999.90;999.90;;;25.10;99.90;;;;;;5013858;28;20395;-64
2022/08/19 10:33:58;;;;;;;1999.90;999.90;;;25.10;99.90;;;;;;4997858;28;20399;-65
2022/08/19 10:36:31;;;;;;;1999.90;999.90;;;25.20;99.90;;;;;;5014709;28;20401;-65
2022/08/19 10:39:02;;;;;;;1999.90;999.90;;;25.40;99.90;;;;;;5017660;28;20774;-65
2022/08/19 10:41:32;;;;;;;1999.90;999.90;;;25.60;99.90;;;;;;5017314;28;20445;-65
2022/08/19 10:44:02;;;;;;;1999.90;999.90;;;25.60;99.90;;;;;;5035493;28;20442;-65
2022/08/19 10:46:40;;;;;;;1999.90;999.90;;;25.60;99.90;;;;;;4984799;28;20524;-64
2022/08/19 10:49:08;;;;;;;1999.90;999.90;;;25.60;99.90;;;;;;5019129;28;20384;-65
2022/08/19 10:54:19;;;;;;;1999.90;999.90;;;25.50;99.90;;;;;;5006303;28;20431;-65
2022/08/19 10:56:51;;;;;;;1999.90;999.90;;;25.50;99.90;;;;;;5034656;28;20418;-64
2022/08/19 10:59:22;;;;;;;1999.90;999.90;;;25.40;99.90;;;;;;5001655;28;20410;-65
2022/08/19 11:01:51;;;;;;;1999.90;999.90;;;25.30;99.90;;;;;;5000989;28;20479;-65
2022/08/19 11:04:19;;;;;;;1999.90;999.90;;;25.40;99.90;;;;;;5017059;28;20423;-64
2022/08/19 11:06:49;;;;;;;1999.90;999.90;;;25.40;99.90;;;;;;5034442;28;20415;-65
2022/08/19 11:09:18;;;;;;;1999.90;999.90;;;25.60;99.90;;;;;;5034824;28;20565;-64
2022/08/19 11:11:45;;;;;;;1999.90;999.90;;;25.70;99.90;;;;;;5000802;28;20411;-64
2022/08/19 11:14:14;;;;;;;1999.90;999.90;;;25.80;99.90;;;;;;5017257;28;20378;-64
2022/08/19 11:16:42;;;;;;;1999.90;999.90;;;26.00;99.90;;;;;;5017533;28;20834;-67
2022/08/19 11:19:10;;;;;;;1999.90;999.90;;;26.30;99.90;;;;;;5018020;28;20390;-66
2022/08/19 11:21:42;;;;;;;1999.90;999.90;;;26.70;99.90;;;;;;5017460;28;20504;-66
2022/08/19 11:24:25;;;;;;;1999.90;999.90;;;27.00;99.90;;;;;;5017446;28;20942;-65
2022/08/19 11:26:53;;;;;;;1999.90;999.90;;;27.00;99.90;;;;;;5035050;28;20435;-66
2022/08/19 11:29:21;;;;;;;1999.90;999.90;;;27.00;99.90;;;;;;5017471;28;20924;-67
2022/08/19 11:31:49;;;;;;;1999.90;999.90;;;27.00;99.90;;;;;;5035032;28;20408;-66
2022/08/19 11:34:19;;;;;;;1999.90;999.90;;;26.80;99.90;;;;;;5018105;28;20473;-66
2022/08/19 11:36:47;;;;;;;1999.90;999.90;;;26.60;99.90;;;;;;5036931;28;20423;-66
2022/08/19 11:39:16;;;;;;;1999.90;999.90;;;26.50;99.90;;;;;;5036764;28;20922;-66
2022/08/19 11:41:42;;;;;;;1999.90;999.90;;;26.60;99.90;;;;;;5035482;28;20448;-67
2022/08/19 11:44:08;;;;;;;1999.90;999.90;;;26.80;99.90;;;;;;5001520;28;20411;-67
2022/08/19 11:46:35;;;;;;;1999.90;999.90;;;27.10;99.90;;;;;;5035466;28;20389;-66
2022/08/19 11:49:02;;;;;;;1999.90;999.90;;;27.30;99.90;;;;;;5036046;28;20174;-65
2022/08/19 11:51:28;;;;;;;1999.90;999.90;;;27.50;99.90;;;;;;5038416;28;20409;-66
2022/08/19 11:53:55;;;;;;;1999.90;999.90;;;27.40;99.90;;;;;;5037521;28;20482;-64
2022/08/19 11:56:21;;;;;;;1999.90;999.90;;;27.60;99.90;;;;;;5037780;28;20461;-65
2022/08/19 11:58:48;;;;;;;1999.90;999.90;;;28.10;99.90;;;;;;5038908;28;20405;-65
2022/08/19 12:01:17;;;;;;;1999.90;999.90;;;28.50;99.50;;;;;;5038738;28;20499;-66
2022/08/19 12:03:47;;;;;;;1999.90;999.90;;;29.00;97.10;;;;;;5037559;28;20744;-65
2022/08/19 12:06:17;;;;;;;1999.90;999.90;;;29.50;93.30;;;;;;5036511;28;20797;-66
2022/08/19 12:08:44;;;;;;;1999.90;999.90;;;30.10;91.10;;;;;;5037272;28;20418;-65
2022/08/19 12:11:11;;;;;;;1999.90;999.90;;;30.60;82.80;;;;;;5036855;28;20391;-66
2022/08/19 12:13:38;;;;;;;1999.90;999.90;;;30.90;76.90;;;;;;5034777;28;20820;-66
2022/08/19 12:16:13;;;;;;;1999.90;999.90;;;31.30;66.80;;;;;;5034086;28;20395;-66
2022/08/19 12:18:42;;;;;;;1999.90;999.90;;;31.30;60.20;;;;;;5036078;28;20513;-67
2022/08/19 12:21:09;;;;;;;1999.90;999.90;;;31.20;59.10;;;;;;5034675;28;20395;-66
2022/08/19 12:23:37;;;;;;;1999.90;999.90;;;30.80;55.60;;;;;;5035144;28;20473;-65